AFL1010 UNKL-UNNT
Flight info
| Callsign | AFL1010 |
|---|---|
| Flight time | N/A |
| Altitude | 38000 |
| Route | APRUS2F APRUS B926 NATIR NATIR1K |
| Aircraft | SU95/M-SDE3GILORVW/S |
Departure
| Time | 2026-04-30 14:25 |
|---|---|
| Airport | Krasnoyarsk International Airport (UNKL) |
Arrival
| Time | N/A |
|---|---|
| Airport | Novosibirsk Tolmachevo Airport (UNNT) |
| Time | Latitude | Longitude | Altitude | Speed | Heading |
|---|---|---|---|---|---|
| 2026-04-30 13:47 | 56.17969 | 92.48435 | 948 ft | 0 kts | 22° |
| 2026-04-30 14:16 | 56.17933 | 92.48408 | 947 ft | 8 kts | 22° |
| 2026-04-30 14:16 | 56.17909 | 92.48380 | 947 ft | 4 kts | 56° |
| 2026-04-30 14:17 | 56.17906 | 92.48329 | 946 ft | 1 kts | 110° |
| 2026-04-30 14:17 | 56.17905 | 92.48333 | 945 ft | 0 kts | 111° |
| 2026-04-30 14:19 | 56.17905 | 92.48335 | 945 ft | 1 kts | 112° |
| 2026-04-30 14:19 | 56.17895 | 92.48374 | 948 ft | 5 kts | 114° |
| 2026-04-30 14:19 | 56.17868 | 92.48445 | 948 ft | 8 kts | 144° |
| 2026-04-30 14:20 | 56.17807 | 92.48434 | 948 ft | 11 kts | 203° |
| 2026-04-30 14:20 | 56.17732 | 92.48439 | 948 ft | 13 kts | 127° |
| 2026-04-30 14:20 | 56.17642 | 92.48804 | 948 ft | 20 kts | 114° |
| 2026-04-30 14:21 | 56.17584 | 92.49046 | 947 ft | 21 kts | 112° |
| 2026-04-30 14:21 | 56.17525 | 92.49296 | 948 ft | 23 kts | 112° |
| 2026-04-30 14:21 | 56.17389 | 92.49860 | 948 ft | 26 kts | 114° |
| 2026-04-30 14:22 | 56.17321 | 92.50143 | 948 ft | 22 kts | 113° |
| 2026-04-30 14:22 | 56.17195 | 92.50411 | 948 ft | 8 kts | 201° |
| 2026-04-30 14:22 | 56.17164 | 92.50389 | 948 ft | 0 kts | 202° |
| 2026-04-30 14:23 | 56.17122 | 92.50356 | 948 ft | 8 kts | 202° |
| 2026-04-30 14:24 | 56.17107 | 92.50124 | 947 ft | 32 kts | 291° |
| 2026-04-30 14:24 | 56.17349 | 92.49103 | 948 ft | 142 kts | 292° |
| 2026-04-30 14:25 | 56.18320 | 92.44987 | 2808 ft | 193 kts | 292° |
| 2026-04-30 14:25 | 56.19480 | 92.40066 | 4968 ft | 234 kts | 292° |
| 2026-04-30 14:26 | 56.19663 | 92.33992 | 7272 ft | 261 kts | 255° |
| 2026-04-30 14:26 | 56.19091 | 92.30916 | 8655 ft | 266 kts | 252° |
| 2026-04-30 14:26 | 56.17771 | 92.24493 | 11081 ft | 289 kts | 253° |
| 2026-04-30 14:27 | 56.17077 | 92.20940 | 11845 ft | 313 kts | 254° |
| 2026-04-30 14:27 | 56.16363 | 92.17184 | 12970 ft | 321 kts | 255° |
| 2026-04-30 14:27 | 56.15642 | 92.13360 | 14219 ft | 327 kts | 255° |
| 2026-04-30 14:28 | 56.14164 | 92.05496 | 16456 ft | 338 kts | 256° |
| 2026-04-30 14:28 | 56.13406 | 92.01464 | 17491 ft | 345 kts | 256° |
| 2026-04-30 14:28 | 56.12633 | 91.97359 | 18003 ft | 349 kts | 256° |
| 2026-04-30 14:28 | 56.11851 | 91.93222 | 18215 ft | 351 kts | 256° |
| 2026-04-30 14:29 | 56.10531 | 91.86259 | 19439 ft | 355 kts | 256° |
| 2026-04-30 14:29 | 56.08924 | 91.77819 | 21488 ft | 363 kts | 256° |
| 2026-04-30 14:30 | 56.06423 | 91.64737 | 24279 ft | 377 kts | 256° |
| 2026-04-30 14:31 | 56.04695 | 91.55759 | 25875 ft | 386 kts | 257° |
| 2026-04-30 14:31 | 56.02920 | 91.46579 | 27386 ft | 395 kts | 257° |
| 2026-04-30 14:31 | 56.02016 | 91.41919 | 28122 ft | 399 kts | 257° |
| 2026-04-30 14:32 | 56.00171 | 91.32446 | 29522 ft | 408 kts | 257° |
| 2026-04-30 14:32 | 55.99230 | 91.27633 | 30177 ft | 412 kts | 257° |
| 2026-04-30 14:32 | 55.98337 | 91.22749 | 30766 ft | 413 kts | 261° |
| 2026-04-30 14:33 | 55.97711 | 91.17745 | 31334 ft | 415 kts | 264° |
| 2026-04-30 14:33 | 55.96531 | 91.07562 | 32433 ft | 423 kts | 264° |
| 2026-04-30 14:33 | 55.95935 | 91.02454 | 32948 ft | 427 kts | 264° |
| 2026-04-30 14:34 | 55.95323 | 90.97268 | 33566 ft | 428 kts | 264° |
| 2026-04-30 14:34 | 55.94705 | 90.92081 | 34253 ft | 427 kts | 264° |
| 2026-04-30 14:34 | 55.94086 | 90.86906 | 34842 ft | 426 kts | 264° |
| 2026-04-30 14:34 | 55.93468 | 90.81744 | 35393 ft | 426 kts | 263° |
| 2026-04-30 14:35 | 55.92225 | 90.71421 | 36460 ft | 425 kts | 263° |
| 2026-04-30 14:35 | 55.91600 | 90.66264 | 36978 ft | 425 kts | 262° |
| 2026-04-30 14:35 | 55.90974 | 90.61107 | 37496 ft | 425 kts | 262° |
| 2026-04-30 14:36 | 55.90348 | 90.55971 | 37990 ft | 425 kts | 262° |
| 2026-04-30 14:36 | 55.89721 | 90.50845 | 38201 ft | 423 kts | 262° |
| 2026-04-30 14:36 | 55.89092 | 90.45735 | 38215 ft | 421 kts | 262° |
| 2026-04-30 14:37 | 55.87833 | 90.35543 | 38218 ft | 422 kts | 262° |
| 2026-04-30 14:37 | 55.86570 | 90.25396 | 38223 ft | 422 kts | 262° |
| 2026-04-30 14:38 | 55.85309 | 90.15344 | 38213 ft | 422 kts | 262° |
| 2026-04-30 14:38 | 55.84021 | 90.05151 | 38217 ft | 422 kts | 262° |
| 2026-04-30 14:39 | 55.82725 | 89.94963 | 38215 ft | 422 kts | 261° |
| 2026-04-30 14:39 | 55.81419 | 89.84778 | 38219 ft | 422 kts | 261° |
| 2026-04-30 14:40 | 55.79443 | 89.69494 | 38221 ft | 423 kts | 261° |
| 2026-04-30 14:40 | 55.78112 | 89.59297 | 38218 ft | 423 kts | 261° |
| 2026-04-30 14:41 | 55.76775 | 89.49113 | 38216 ft | 423 kts | 261° |
| 2026-04-30 14:41 | 55.75437 | 89.39002 | 38221 ft | 423 kts | 261° |
| 2026-04-30 14:42 | 55.74082 | 89.28828 | 38218 ft | 424 kts | 261° |
| 2026-04-30 14:42 | 55.72717 | 89.18650 | 38219 ft | 424 kts | 261° |
| 2026-04-30 14:43 | 55.71345 | 89.08496 | 38215 ft | 423 kts | 261° |
| 2026-04-30 14:43 | 55.69966 | 88.98339 | 38216 ft | 423 kts | 261° |
| 2026-04-30 14:44 | 55.68583 | 88.88197 | 38219 ft | 423 kts | 261° |
| 2026-04-30 14:44 | 55.67194 | 88.78049 | 38217 ft | 423 kts | 261° |
| 2026-04-30 14:45 | 55.65798 | 88.67915 | 38216 ft | 423 kts | 261° |
| 2026-04-30 14:45 | 55.64403 | 88.57858 | 38218 ft | 423 kts | 261° |
| 2026-04-30 14:46 | 55.62989 | 88.47736 | 38217 ft | 423 kts | 261° |
| 2026-04-30 14:46 | 55.61567 | 88.37623 | 38221 ft | 423 kts | 261° |
| 2026-04-30 14:47 | 55.60138 | 88.27522 | 38218 ft | 423 kts | 261° |
| 2026-04-30 14:47 | 55.58700 | 88.17427 | 38217 ft | 424 kts | 260° |
| 2026-04-30 14:48 | 55.57252 | 88.07328 | 38224 ft | 424 kts | 260° |
| 2026-04-30 14:48 | 55.55794 | 87.97226 | 38223 ft | 424 kts | 260° |
| 2026-04-30 14:49 | 55.54338 | 87.87206 | 38224 ft | 423 kts | 260° |
| 2026-04-30 14:49 | 55.52864 | 87.77118 | 38221 ft | 424 kts | 260° |
| 2026-04-30 14:50 | 55.50641 | 87.62027 | 38222 ft | 424 kts | 260° |
| 2026-04-30 14:51 | 55.48395 | 87.46954 | 38223 ft | 423 kts | 260° |
| 2026-04-30 14:52 | 55.46121 | 87.31914 | 38219 ft | 423 kts | 260° |
| 2026-04-30 14:52 | 55.43843 | 87.16966 | 38225 ft | 423 kts | 260° |
| 2026-04-30 14:53 | 55.41534 | 87.01957 | 38219 ft | 423 kts | 260° |
| 2026-04-30 14:54 | 55.38431 | 86.81987 | 37792 ft | 423 kts | 260° |
| 2026-04-30 14:55 | 55.36862 | 86.71986 | 37241 ft | 425 kts | 260° |
| 2026-04-30 14:55 | 55.36072 | 86.66969 | 36972 ft | 426 kts | 260° |
| 2026-04-30 14:55 | 55.34480 | 86.56911 | 36439 ft | 428 kts | 260° |
| 2026-04-30 14:56 | 55.32871 | 86.46807 | 35923 ft | 430 kts | 260° |
| 2026-04-30 14:56 | 55.31247 | 86.36668 | 35413 ft | 432 kts | 260° |
| 2026-04-30 14:57 | 55.30428 | 86.31578 | 35164 ft | 433 kts | 260° |
| 2026-04-30 14:57 | 55.28777 | 86.21357 | 34673 ft | 436 kts | 260° |
| 2026-04-30 14:58 | 55.27206 | 86.11146 | 34237 ft | 434 kts | 265° |
| 2026-04-30 14:58 | 55.26330 | 85.95474 | 34017 ft | 430 kts | 271° |
| 2026-04-30 14:59 | 55.25828 | 85.85019 | 33467 ft | 430 kts | 270° |
| 2026-04-30 15:00 | 55.25051 | 85.69323 | 32653 ft | 431 kts | 270° |
| 2026-04-30 15:00 | 55.24522 | 85.58882 | 32131 ft | 428 kts | 269° |
| 2026-04-30 15:01 | 55.23994 | 85.48613 | 31615 ft | 424 kts | 269° |
| 2026-04-30 15:01 | 55.23814 | 85.45143 | 31442 ft | 422 kts | 269° |
| 2026-04-30 15:01 | 55.23191 | 85.33311 | 30861 ft | 417 kts | 269° |
| 2026-04-30 15:02 | 55.22922 | 85.28266 | 30613 ft | 415 kts | 269° |
| 2026-04-30 15:02 | 55.22652 | 85.23243 | 30363 ft | 413 kts | 269° |
| 2026-04-30 15:03 | 55.21837 | 85.08294 | 29519 ft | 408 kts | 268° |
| 2026-04-30 15:03 | 55.21293 | 84.98502 | 28731 ft | 406 kts | 268° |
| 2026-04-30 15:04 | 55.20741 | 84.88730 | 27411 ft | 400 kts | 268° |
| 2026-04-30 15:04 | 55.19918 | 84.74408 | 25488 ft | 388 kts | 267° |
| 2026-04-30 15:05 | 55.18098 | 84.60705 | 23534 ft | 383 kts | 256° |
| 2026-04-30 15:06 | 55.16580 | 84.51902 | 22237 ft | 372 kts | 256° |
| 2026-04-30 15:06 | 55.15099 | 84.43332 | 20988 ft | 363 kts | 255° |
| 2026-04-30 15:07 | 55.13655 | 84.35025 | 19798 ft | 355 kts | 255° |
| 2026-04-30 15:07 | 55.12216 | 84.26776 | 19248 ft | 356 kts | 255° |
| 2026-04-30 15:08 | 55.10775 | 84.18539 | 18769 ft | 353 kts | 255° |
| 2026-04-30 15:08 | 55.08589 | 84.06059 | 16262 ft | 363 kts | 254° |
| 2026-04-30 15:09 | 55.07128 | 83.97729 | 14924 ft | 353 kts | 254° |
| 2026-04-30 15:09 | 55.05741 | 83.89869 | 14363 ft | 327 kts | 254° |
| 2026-04-30 15:10 | 55.04429 | 83.82293 | 13821 ft | 328 kts | 259° |
| 2026-04-30 15:11 | 55.04096 | 83.66016 | 10686 ft | 333 kts | 269° |
| 2026-04-30 15:11 | 55.03992 | 83.58243 | 10213 ft | 304 kts | 268° |
| 2026-04-30 15:12 | 55.03828 | 83.47782 | 9278 ft | 282 kts | 268° |
| 2026-04-30 15:13 | 55.03716 | 83.40973 | 8355 ft | 280 kts | 268° |
| 2026-04-30 15:14 | 55.02892 | 83.27910 | 7152 ft | 261 kts | 257° |
| 2026-04-30 15:14 | 55.01759 | 83.19275 | 6715 ft | 232 kts | 258° |
| 2026-04-30 15:16 | 55.00079 | 83.06551 | 5198 ft | 229 kts | 257° |
| 2026-04-30 15:17 | 54.99425 | 82.95422 | 3759 ft | 231 kts | 300° |
| 2026-04-30 15:18 | 55.03026 | 82.84178 | 2587 ft | 207 kts | 262° |
| 2026-04-30 15:19 | 55.02335 | 82.77026 | 2058 ft | 191 kts | 258° |